sensor_id;sensor_type;location;lat;lon;timestamp;P1;durP1;ratioP1;P2;durP2;ratioP2
9310;SDS011;4694;52.464;13.480;2022-12-10T10:19:05;28.52;;;14.38;;
9310;SDS011;4694;52.464;13.480;2022-12-10T10:21:33;34.78;;;16.10;;
9310;SDS011;4694;52.464;13.480;2022-12-10T10:24:02;34.38;;;16.52;;
9310;SDS011;4694;52.464;13.480;2022-12-10T10:26:29;29.60;;;13.90;;
9310;SDS011;4694;52.464;13.480;2022-12-10T10:28:57;27.13;;;15.07;;
9310;SDS011;4694;52.464;13.480;2022-12-10T10:31:26;25.52;;;14.00;;
9310;SDS011;4694;52.464;13.480;2022-12-10T10:33:55;28.20;;;14.32;;
9310;SDS011;4694;52.464;13.480;2022-12-10T10:36:24;25.48;;;13.68;;
9310;SDS011;4694;52.464;13.480;2022-12-10T10:38:52;26.65;;;14.07;;
9310;SDS011;4694;52.464;13.480;2022-12-10T10:41:19;21.42;;;11.90;;
9310;SDS011;4694;52.464;13.480;2022-12-10T10:43:46;26.27;;;13.40;;
9310;SDS011;4694;52.464;13.480;2022-12-10T10:46:14;20.35;;;12.88;;
9310;SDS011;4694;52.464;13.480;2022-12-10T10:48:41;21.63;;;13.38;;
9310;SDS011;4694;52.464;13.480;2022-12-10T10:51:15;25.05;;;13.15;;
9310;SDS011;4694;52.464;13.480;2022-12-10T10:53:46;20.25;;;11.40;;
9310;SDS011;4694;52.464;13.480;2022-12-10T10:56:16;20.20;;;12.52;;
9310;SDS011;4694;52.464;13.480;2022-12-10T10:58:47;28.45;;;13.63;;
9310;SDS011;4694;52.464;13.480;2022-12-10T11:01:14;26.38;;;12.88;;
9310;SDS011;4694;52.464;13.480;2022-12-10T11:03:45;23.65;;;13.82;;
9310;SDS011;4694;52.464;13.480;2022-12-10T11:06:21;22.08;;;11.88;;
9310;SDS011;4694;52.464;13.480;2022-12-10T11:08:49;26.50;;;14.90;;
9310;SDS011;4694;52.464;13.480;2022-12-10T11:13:46;20.40;;;11.60;;
9310;SDS011;4694;52.464;13.480;2022-12-10T11:16:17;21.88;;;12.00;;
9310;SDS011;4694;52.464;13.480;2022-12-10T11:18:51;27.38;;;14.32;;
9310;SDS011;4694;52.464;13.480;2022-12-10T11:21:19;24.92;;;12.98;;
9310;SDS011;4694;52.464;13.480;2022-12-10T11:23:48;23.13;;;12.63;;
9310;SDS011;4694;52.464;13.480;2022-12-10T11:26:24;19.50;;;12.57;;
9310;SDS011;4694;52.464;13.480;2022-12-10T11:28:57;24.38;;;12.43;;
9310;SDS011;4694;52.464;13.480;2022-12-10T11:31:32;21.10;;;12.63;;
9310;SDS011;4694;52.464;13.480;2022-12-10T11:34:01;23.88;;;12.93;;
9310;SDS011;4694;52.464;13.480;2022-12-10T11:36:32;27.40;;;12.93;;
9310;SDS011;4694;52.464;13.480;2022-12-10T11:41:32;25.25;;;12.63;;
9310;SDS011;4694;52.464;13.480;2022-12-10T11:44:11;23.65;;;12.30;;
9310;SDS011;4694;52.464;13.480;2022-12-10T11:46:46;22.40;;;12.88;;
9310;SDS011;4694;52.464;13.480;2022-12-10T11:49:20;23.55;;;12.05;;
9310;SDS011;4694;52.464;13.480;2022-12-10T11:51:50;23.48;;;14.05;;
9310;SDS011;4694;52.464;13.480;2022-12-10T11:54:29;27.30;;;14.77;;
9310;SDS011;4694;52.464;13.480;2022-12-10T11:57:02;27.85;;;14.38;;
9310;SDS011;4694;52.464;13.480;2022-12-10T11:59:33;27.45;;;16.17;;
9310;SDS011;4694;52.464;13.480;2022-12-10T12:02:05;26.27;;;15.07;;
9310;SDS011;4694;52.464;13.480;2022-12-10T12:04:41;23.70;;;13.63;;
9310;SDS011;4694;52.464;13.480;2022-12-10T12:07:18;25.52;;;13.70;;
9310;SDS011;4694;52.464;13.480;2022-12-10T12:09:50;23.17;;;13.77;;
9310;SDS011;4694;52.464;13.480;2022-12-10T12:12:24;22.90;;;10.93;;
9310;SDS011;4694;52.464;13.480;2022-12-10T12:14:54;27.40;;;14.65;;
9310;SDS011;4694;52.464;13.480;2022-12-10T12:17:23;27.15;;;14.82;;
9310;SDS011;4694;52.464;13.480;2022-12-10T12:19:51;30.45;;;14.90;;
9310;SDS011;4694;52.464;13.480;2022-12-10T12:22:22;24.27;;;13.25;;
9310;SDS011;4694;52.464;13.480;2022-12-10T12:24:50;27.30;;;15.32;;
9310;SDS011;4694;52.464;13.480;2022-12-10T12:27:22;23.83;;;14.45;;
9310;SDS011;4694;52.464;13.480;2022-12-10T12:29:54;24.60;;;13.60;;
9310;SDS011;4694;52.464;13.480;2022-12-10T12:32:25;23.30;;;13.43;;
9310;SDS011;4694;52.464;13.480;2022-12-10T12:34:55;29.05;;;15.30;;
9310;SDS011;4694;52.464;13.480;2022-12-10T12:37:25;30.75;;;15.43;;
9310;SDS011;4694;52.464;13.480;2022-12-10T12:39:57;24.42;;;14.55;;
9310;SDS011;4694;52.464;13.480;2022-12-10T12:42:26;26.15;;;13.27;;
9310;SDS011;4694;52.464;13.480;2022-12-10T12:44:59;24.40;;;14.40;;
9310;SDS011;4694;52.464;13.480;2022-12-10T12:47:31;27.30;;;13.55;;
9310;SDS011;4694;52.464;13.480;2022-12-10T12:49:59;22.52;;;14.73;;
9310;SDS011;4694;52.464;13.480;2022-12-10T12:52:29;26.08;;;14.80;;
9310;SDS011;4694;52.464;13.480;2022-12-10T12:54:59;25.83;;;13.18;;
9310;SDS011;4694;52.464;13.480;2022-12-10T12:57:30;24.67;;;13.82;;
9310;SDS011;4694;52.464;13.480;2022-12-10T13:00:03;24.08;;;14.60;;
9310;SDS011;4694;52.464;13.480;2022-12-10T13:02:42;28.85;;;15.00;;
9310;SDS011;4694;52.464;13.480;2022-12-10T13:07:38;26.10;;;13.27;;
9310;SDS011;4694;52.464;13.480;2022-12-10T13:10:09;27.05;;;14.25;;
9310;SDS011;4694;52.464;13.480;2022-12-10T13:12:47;27.17;;;14.93;;
9310;SDS011;4694;52.464;13.480;2022-12-10T13:15:18;23.08;;;13.82;;
9310;SDS011;4694;52.464;13.480;2022-12-10T13:18:02;25.95;;;14.35;;
9310;SDS011;4694;52.464;13.480;2022-12-10T13:20:31;26.58;;;12.50;;
9310;SDS011;4694;52.464;13.480;2022-12-10T13:22:58;26.98;;;12.48;;
9310;SDS011;4694;52.464;13.480;2022-12-10T13:28:20;28.50;;;15.98;;
9310;SDS011;4694;52.464;13.480;2022-12-10T13:33:39;22.27;;;13.13;;
9310;SDS011;4694;52.464;13.480;2022-12-10T13:36:10;23.33;;;12.13;;
9310;SDS011;4694;52.464;13.480;2022-12-10T13:38:41;27.63;;;16.55;;
9310;SDS011;4694;52.464;13.480;2022-12-10T13:43:57;22.50;;;12.50;;
9310;SDS011;4694;52.464;13.480;2022-12-10T13:46:53;24.00;;;13.75;;
9310;SDS011;4694;52.464;13.480;2022-12-10T13:49:25;28.35;;;13.13;;
9310;SDS011;4694;52.464;13.480;2022-12-10T13:51:54;30.73;;;13.93;;
9310;SDS011;4694;52.464;13.480;2022-12-10T13:54:35;29.02;;;14.75;;
9310;SDS011;4694;52.464;13.480;2022-12-10T13:57:09;21.38;;;13.70;;
9310;SDS011;4694;52.464;13.480;2022-12-10T13:59:41;27.45;;;14.02;;
9310;SDS011;4694;52.464;13.480;2022-12-10T14:02:24;30.48;;;12.93;;
9310;SDS011;4694;52.464;13.480;2022-12-10T14:05:05;25.33;;;13.27;;
9310;SDS011;4694;52.464;13.480;2022-12-10T14:07:37;23.40;;;12.70;;
9310;SDS011;4694;52.464;13.480;2022-12-10T14:10:04;24.08;;;14.82;;
9310;SDS011;4694;52.464;13.480;2022-12-10T14:12:36;31.13;;;15.00;;
9310;SDS011;4694;52.464;13.480;2022-12-10T14:15:05;23.00;;;13.18;;
9310;SDS011;4694;52.464;13.480;2022-12-10T14:17:34;27.55;;;14.32;;
9310;SDS011;4694;52.464;13.480;2022-12-10T14:20:06;32.60;;;14.38;;
9310;SDS011;4694;52.464;13.480;2022-12-10T14:22:34;25.13;;;13.23;;
9310;SDS011;4694;52.464;13.480;2022-12-10T14:25:04;30.25;;;16.38;;
9310;SDS011;4694;52.464;13.480;2022-12-10T14:27:32;24.25;;;12.82;;
9310;SDS011;4694;52.464;13.480;2022-12-10T14:30:00;26.95;;;12.77;;
9310;SDS011;4694;52.464;13.480;2022-12-10T14:32:29;26.35;;;13.48;;
9310;SDS011;4694;52.464;13.480;2022-12-10T14:34:57;29.27;;;14.88;;
9310;SDS011;4694;52.464;13.480;2022-12-10T14:37:27;34.50;;;14.50;;
9310;SDS011;4694;52.464;13.480;2022-12-10T14:39:55;35.45;;;17.33;;
9310;SDS011;4694;52.464;13.480;2022-12-10T14:42:25;36.72;;;16.73;;
9310;SDS011;4694;52.464;13.480;2022-12-10T14:44:54;32.70;;;15.02;;
9310;SDS011;4694;52.464;13.480;2022-12-10T14:47:22;30.60;;;13.60;;
9310;SDS011;4694;52.464;13.480;2022-12-10T14:49:50;27.08;;;15.93;;
9310;SDS011;4694;52.464;13.480;2022-12-10T14:52:19;39.67;;;14.85;;
9310;SDS011;4694;52.464;13.480;2022-12-10T14:54:48;28.25;;;15.15;;
9310;SDS011;4694;52.464;13.480;2022-12-10T14:57:16;28.25;;;15.15;;
9310;SDS011;4694;52.464;13.480;2022-12-10T14:59:44;28.63;;;15.07;;
9310;SDS011;4694;52.464;13.480;2022-12-10T15:02:14;33.17;;;16.17;;
9310;SDS011;4694;52.464;13.480;2022-12-10T15:04:44;28.45;;;15.48;;
9310;SDS011;4694;52.464;13.480;2022-12-10T15:07:13;33.85;;;16.10;;
9310;SDS011;4694;52.464;13.480;2022-12-10T15:09:41;33.58;;;15.25;;
9310;SDS011;4694;52.464;13.480;2022-12-10T15:12:18;35.47;;;17.50;;
9310;SDS011;4694;52.464;13.480;2022-12-10T15:14:46;31.98;;;16.52;;
9310;SDS011;4694;52.464;13.480;2022-12-10T15:19:57;36.05;;;17.52;;
9310;SDS011;4694;52.464;13.480;2022-12-10T15:22:26;33.22;;;16.58;;
9310;SDS011;4694;52.464;13.480;2022-12-10T15:24:54;35.88;;;16.60;;
9310;SDS011;4694;52.464;13.480;2022-12-10T15:27:22;40.50;;;16.25;;
9310;SDS011;4694;52.464;13.480;2022-12-10T15:29:50;34.72;;;16.48;;
9310;SDS011;4694;52.464;13.480;2022-12-10T15:32:19;40.20;;;17.85;;
9310;SDS011;4694;52.464;13.480;2022-12-10T15:34:48;37.87;;;15.07;;
9310;SDS011;4694;52.464;13.480;2022-12-10T15:37:17;32.35;;;17.15;;
9310;SDS011;4694;52.464;13.480;2022-12-10T15:39:45;31.95;;;17.38;;
9310;SDS011;4694;52.464;13.480;2022-12-10T15:42:28;39.38;;;17.65;;
9310;SDS011;4694;52.464;13.480;2022-12-10T15:44:56;33.38;;;17.42;;
9310;SDS011;4694;52.464;13.480;2022-12-10T15:47:25;36.75;;;18.38;;
9310;SDS011;4694;52.464;13.480;2022-12-10T15:49:53;35.97;;;17.35;;
9310;SDS011;4694;52.464;13.480;2022-12-10T15:52:22;33.17;;;18.23;;
9310;SDS011;4694;52.464;13.480;2022-12-10T15:54:50;34.85;;;15.85;;
9310;SDS011;4694;52.464;13.480;2022-12-10T15:57:18;39.38;;;15.25;;
9310;SDS011;4694;52.464;13.480;2022-12-10T15:59:47;33.40;;;17.05;;
9310;SDS011;4694;52.464;13.480;2022-12-10T16:02:26;37.97;;;16.90;;
9310;SDS011;4694;52.464;13.480;2022-12-10T16:04:57;31.40;;;15.68;;
9310;SDS011;4694;52.464;13.480;2022-12-10T16:07:24;34.83;;;14.80;;
9310;SDS011;4694;52.464;13.480;2022-12-10T16:09:51;33.03;;;16.15;;
9310;SDS011;4694;52.464;13.480;2022-12-10T16:12:18;28.52;;;14.20;;
9310;SDS011;4694;52.464;13.480;2022-12-10T16:14:48;38.22;;;18.60;;
9310;SDS011;4694;52.464;13.480;2022-12-10T16:17:16;45.60;;;18.48;;
9310;SDS011;4694;52.464;13.480;2022-12-10T16:19:43;32.10;;;16.05;;
9310;SDS011;4694;52.464;13.480;2022-12-10T16:22:10;38.13;;;17.75;;
9310;SDS011;4694;52.464;13.480;2022-12-10T16:24:37;40.35;;;16.08;;
9310;SDS011;4694;52.464;13.480;2022-12-10T16:27:08;45.67;;;17.27;;
9310;SDS011;4694;52.464;13.480;2022-12-10T16:29:38;47.15;;;16.95;;
9310;SDS011;4694;52.464;13.480;2022-12-10T16:32:08;36.50;;;16.02;;
9310;SDS011;4694;52.464;13.480;2022-12-10T16:34:35;36.87;;;15.60;;
9310;SDS011;4694;52.464;13.480;2022-12-10T16:37:02;42.28;;;16.50;;
9310;SDS011;4694;52.464;13.480;2022-12-10T16:39:30;30.50;;;16.60;;
9310;SDS011;4694;52.464;13.480;2022-12-10T16:41:57;37.70;;;16.58;;
9310;SDS011;4694;52.464;13.480;2022-12-10T16:44:24;38.47;;;17.73;;
9310;SDS011;4694;52.464;13.480;2022-12-10T16:46:51;47.17;;;18.33;;
9310;SDS011;4694;52.464;13.480;2022-12-10T16:49:20;39.65;;;18.08;;
9310;SDS011;4694;52.464;13.480;2022-12-10T16:51:47;39.05;;;18.88;;
9310;SDS011;4694;52.464;13.480;2022-12-10T16:54:15;36.42;;;17.42;;
9310;SDS011;4694;52.464;13.480;2022-12-10T16:56:42;40.00;;;17.02;;
9310;SDS011;4694;52.464;13.480;2022-12-10T16:59:10;41.17;;;17.33;;
9310;SDS011;4694;52.464;13.480;2022-12-10T17:01:37;44.53;;;19.83;;
9310;SDS011;4694;52.464;13.480;2022-12-10T17:04:04;38.03;;;18.73;;
9310;SDS011;4694;52.464;13.480;2022-12-10T17:06:32;42.42;;;17.80;;
9310;SDS011;4694;52.464;13.480;2022-12-10T17:08:59;42.28;;;16.98;;
9310;SDS011;4694;52.464;13.480;2022-12-10T17:11:27;38.92;;;16.80;;
9310;SDS011;4694;52.464;13.480;2022-12-10T17:14:13;51.58;;;18.02;;
9310;SDS011;4694;52.464;13.480;2022-12-10T17:16:41;53.72;;;19.50;;
9310;SDS011;4694;52.464;13.480;2022-12-10T17:19:08;43.00;;;18.55;;
9310;SDS011;4694;52.464;13.480;2022-12-10T17:21:37;48.03;;;17.77;;
9310;SDS011;4694;52.464;13.480;2022-12-10T17:24:04;45.80;;;18.10;;
9310;SDS011;4694;52.464;13.480;2022-12-10T17:26:32;39.72;;;19.33;;
9310;SDS011;4694;52.464;13.480;2022-12-10T17:29:02;54.92;;;19.50;;
9310;SDS011;4694;52.464;13.480;2022-12-10T17:31:30;47.20;;;18.17;;
9310;SDS011;4694;52.464;13.480;2022-12-10T17:33:57;55.33;;;20.08;;
9310;SDS011;4694;52.464;13.480;2022-12-10T17:36:24;49.33;;;19.27;;
9310;SDS011;4694;52.464;13.480;2022-12-10T17:38:52;47.03;;;20.52;;
9310;SDS011;4694;52.464;13.480;2022-12-10T17:41:19;44.17;;;18.55;;
9310;SDS011;4694;52.464;13.480;2022-12-10T17:43:46;43.53;;;20.67;;
9310;SDS011;4694;52.464;13.480;2022-12-10T17:46:14;39.00;;;19.60;;
9310;SDS011;4694;52.464;13.480;2022-12-10T17:48:42;62.00;;;21.52;;
9310;SDS011;4694;52.464;13.480;2022-12-10T17:51:09;48.80;;;21.45;;
9310;SDS011;4694;52.464;13.480;2022-12-10T17:53:37;48.10;;;19.25;;
9310;SDS011;4694;52.464;13.480;2022-12-10T17:56:09;49.92;;;19.63;;
9310;SDS011;4694;52.464;13.480;2022-12-10T17:58:37;49.30;;;19.58;;
9310;SDS011;4694;52.464;13.480;2022-12-10T18:01:04;49.50;;;18.95;;
9310;SDS011;4694;52.464;13.480;2022-12-10T18:03:31;49.38;;;18.17;;
9310;SDS011;4694;52.464;13.480;2022-12-10T18:05:58;57.25;;;21.23;;
9310;SDS011;4694;52.464;13.480;2022-12-10T18:08:25;52.45;;;22.23;;
9310;SDS011;4694;52.464;13.480;2022-12-10T18:10:52;51.08;;;20.52;;
9310;SDS011;4694;52.464;13.480;2022-12-10T18:13:23;47.95;;;17.60;;
9310;SDS011;4694;52.464;13.480;2022-12-10T18:15:50;62.33;;;22.75;;
9310;SDS011;4694;52.464;13.480;2022-12-10T18:18:18;51.45;;;21.17;;
9310;SDS011;4694;52.464;13.480;2022-12-10T18:20:46;54.97;;;20.45;;
9310;SDS011;4694;52.464;13.480;2022-12-10T18:23:13;54.65;;;21.13;;
9310;SDS011;4694;52.464;13.480;2022-12-10T18:25:41;46.28;;;22.55;;
9310;SDS011;4694;52.464;13.480;2022-12-10T18:28:14;49.92;;;21.27;;
9310;SDS011;4694;52.464;13.480;2022-12-10T18:31:03;53.88;;;18.90;;
9310;SDS011;4694;52.464;13.480;2022-12-10T18:33:36;45.60;;;19.30;;
9310;SDS011;4694;52.464;13.480;2022-12-10T18:36:03;56.45;;;19.10;;
9310;SDS011;4694;52.464;13.480;2022-12-10T18:38:31;60.15;;;20.63;;
9310;SDS011;4694;52.464;13.480;2022-12-10T18:40:58;51.15;;;20.20;;
9310;SDS011;4694;52.464;13.480;2022-12-10T18:43:25;49.95;;;20.75;;
9310;SDS011;4694;52.464;13.480;2022-12-10T18:45:52;49.33;;;18.90;;
9310;SDS011;4694;52.464;13.480;2022-12-10T18:48:20;51.53;;;22.23;;
9310;SDS011;4694;52.464;13.480;2022-12-10T18:50:47;41.15;;;16.08;;
9310;SDS011;4694;52.464;13.480;2022-12-10T18:53:18;45.08;;;18.83;;
9310;SDS011;4694;52.464;13.480;2022-12-10T18:55:46;44.17;;;18.30;;
9310;SDS011;4694;52.464;13.480;2022-12-10T18:58:13;47.65;;;19.23;;
9310;SDS011;4694;52.464;13.480;2022-12-10T19:00:39;43.58;;;18.05;;
9310;SDS011;4694;52.464;13.480;2022-12-10T19:03:07;54.15;;;18.48;;
9310;SDS011;4694;52.464;13.480;2022-12-10T19:05:35;42.97;;;18.98;;
9310;SDS011;4694;52.464;13.480;2022-12-10T19:08:02;55.65;;;20.25;;
9310;SDS011;4694;52.464;13.480;2022-12-10T19:10:29;49.95;;;20.48;;
9310;SDS011;4694;52.464;13.480;2022-12-10T19:12:56;55.00;;;20.45;;
9310;SDS011;4694;52.464;13.480;2022-12-10T19:15:23;45.45;;;18.83;;
9310;SDS011;4694;52.464;13.480;2022-12-10T19:17:50;47.63;;;18.75;;
9310;SDS011;4694;52.464;13.480;2022-12-10T19:20:19;49.47;;;20.73;;
9310;SDS011;4694;52.464;13.480;2022-12-10T19:22:47;45.58;;;18.25;;
9310;SDS011;4694;52.464;13.480;2022-12-10T19:25:14;60.85;;;21.15;;
9310;SDS011;4694;52.464;13.480;2022-12-10T19:27:41;47.35;;;21.25;;
9310;SDS011;4694;52.464;13.480;2022-12-10T19:30:10;58.35;;;21.95;;
9310;SDS011;4694;52.464;13.480;2022-12-10T19:32:39;47.63;;;23.70;;
9310;SDS011;4694;52.464;13.480;2022-12-10T19:35:07;52.30;;;20.15;;
9310;SDS011;4694;52.464;13.480;2022-12-10T19:37:35;55.90;;;21.65;;
9310;SDS011;4694;52.464;13.480;2022-12-10T19:40:04;52.80;;;22.73;;
9310;SDS011;4694;52.464;13.480;2022-12-10T19:42:31;52.08;;;19.50;;
9310;SDS011;4694;52.464;13.480;2022-12-10T19:44:58;46.85;;;18.33;;
9310;SDS011;4694;52.464;13.480;2022-12-10T19:47:25;47.53;;;20.55;;
9310;SDS011;4694;52.464;13.480;2022-12-10T19:49:54;45.67;;;18.52;;
9310;SDS011;4694;52.464;13.480;2022-12-10T19:52:21;48.25;;;21.98;;
9310;SDS011;4694;52.464;13.480;2022-12-10T19:54:48;53.05;;;20.42;;
9310;SDS011;4694;52.464;13.480;2022-12-10T19:57:16;47.13;;;20.05;;
9310;SDS011;4694;52.464;13.480;2022-12-10T19:59:43;49.40;;;21.10;;
9310;SDS011;4694;52.464;13.480;2022-12-10T20:02:10;50.50;;;20.23;;
9310;SDS011;4694;52.464;13.480;2022-12-10T20:04:37;53.28;;;19.75;;
9310;SDS011;4694;52.464;13.480;2022-12-10T20:07:04;41.58;;;18.25;;
9310;SDS011;4694;52.464;13.480;2022-12-10T20:09:31;43.72;;;18.13;;
9310;SDS011;4694;52.464;13.480;2022-12-10T20:12:00;46.88;;;19.25;;
